createdAt,value
2022-10-20T00:01:12.233Z,101421.13
2022-10-20T00:03:39.839Z,101415.97
2022-10-20T00:06:14.478Z,101422.22
2022-10-20T00:08:42.987Z,101437.31
2022-10-20T00:11:11.237Z,101431.16
2022-10-20T00:13:39.264Z,101425.88
2022-10-20T00:16:06.873Z,101431.19
2022-10-20T00:18:34.619Z,101430.41
2022-10-20T00:21:05.858Z,101422.47
2022-10-20T00:23:32.619Z,101414.53
2022-10-20T00:26:05.585Z,101393.53
2022-10-20T00:28:32.802Z,101384.66
2022-10-20T00:30:59.680Z,101387.31
2022-10-20T00:33:27.607Z,101379.50
2022-10-20T00:35:54.443Z,101366.28
2022-10-20T00:38:21.591Z,101372.50
2022-10-20T00:40:48.427Z,101366.50
2022-10-20T00:43:17.160Z,101360.34
2022-10-20T00:45:50.322Z,101355.06
2022-10-20T00:48:22.990Z,101351.53
2022-10-20T00:50:52.979Z,101351.53
2022-10-20T00:53:24.657Z,101349.91
2022-10-20T00:55:54.860Z,101354.31
2022-10-20T00:58:22.042Z,101346.47
2022-10-20T01:00:53.634Z,101340.31
2022-10-20T01:03:26.611Z,101340.31
2022-10-20T01:05:53.487Z,101342.19
2022-10-20T01:08:20.285Z,101352.81
2022-10-20T01:11:01.142Z,101360.75
2022-10-20T01:13:37.665Z,101353.69
2022-10-20T01:16:19.500Z,101350.50
2022-10-20T01:18:56.244Z,101360.81
2022-10-20T01:21:48.034Z,101345.88
2022-10-20T01:24:44.560Z,101348.59
2022-10-20T01:27:38.727Z,101344.19
2022-10-20T01:30:18.796Z,101342.44
2022-10-20T01:32:51.637Z,101342.53
2022-10-20T01:35:32.429Z,101348.59
2022-10-20T01:38:10.513Z,101355.75
2022-10-20T01:40:59.192Z,101340.72
2022-10-20T01:43:28.848Z,101348.72
2022-10-20T01:45:59.043Z,101355.81
2022-10-20T01:48:31.752Z,101341.72
2022-10-20T01:51:00.610Z,101332.88
2022-10-20T01:53:27.937Z,101325.06
2022-10-20T01:55:57.702Z,101320.66
2022-10-20T01:58:45.624Z,101296.91
2022-10-20T02:01:30.999Z,101288.13
2022-10-20T02:04:01.616Z,101286.38
2022-10-20T02:07:00.949Z,101275.78
2022-10-20T02:09:35.283Z,101277.66
2022-10-20T02:12:07.671Z,101269.66
2022-10-20T02:14:35.882Z,101271.50
2022-10-20T02:17:13.538Z,101252.22
2022-10-20T02:19:42.885Z,101244.22
2022-10-20T02:22:14.176Z,101243.47
2022-10-20T02:24:43.129Z,101247.00
2022-10-20T02:27:33.049Z,101239.91
2022-10-20T02:30:08.092Z,101248.75
2022-10-20T02:32:37.596Z,101233.78
2022-10-20T02:35:07.363Z,101221.63
2022-10-20T02:37:34.663Z,101230.34
2022-10-20T02:40:02.485Z,101230.25
2022-10-20T02:42:29.250Z,101225.94
2022-10-20T02:44:56.179Z,101223.34
2022-10-20T02:47:23.175Z,101204.00
2022-10-20T02:49:50.080Z,101193.41
2022-10-20T02:52:16.983Z,101190.78
2022-10-20T02:54:43.790Z,101195.25
2022-10-20T02:57:10.633Z,101182.13
2022-10-20T02:59:37.802Z,101188.19
2022-10-20T03:02:04.696Z,101186.50
2022-10-20T03:04:31.682Z,101177.69
2022-10-20T03:06:58.494Z,101173.31
2022-10-20T03:09:25.411Z,101170.69
2022-10-20T03:11:52.225Z,101158.34
2022-10-20T03:14:19.083Z,101155.78
2022-10-20T03:16:45.883Z,101149.69
2022-10-20T03:19:12.685Z,101141.75
2022-10-20T03:21:39.502Z,101143.53
2022-10-20T03:24:06.622Z,101141.75
2022-10-20T03:26:33.542Z,101135.59
2022-10-20T03:29:00.372Z,101130.31
2022-10-20T03:31:27.205Z,101131.31
2022-10-20T03:33:54.070Z,101129.47
2022-10-20T03:36:21.127Z,101130.31
2022-10-20T03:38:47.975Z,101145.34
2022-10-20T03:41:14.828Z,101117.19
2022-10-20T03:43:42.174Z,101108.47
2022-10-20T03:46:12.174Z,101093.47
2022-10-20T03:48:39.941Z,101081.97
2022-10-20T03:51:07.857Z,101076.75
2022-10-20T03:53:34.720Z,101099.59
2022-10-20T03:56:09.755Z,101084.69
2022-10-20T03:58:36.872Z,101077.69
2022-10-20T04:01:06.587Z,101082.97
2022-10-20T04:03:33.532Z,101088.25
2022-10-20T04:06:00.506Z,101085.59
2022-10-20T04:08:27.344Z,101082.97
2022-10-20T04:10:54.186Z,101076.00
2022-10-20T04:13:21.029Z,101077.75
2022-10-20T04:15:47.813Z,101082.19
2022-10-20T04:18:14.655Z,101074.25
2022-10-20T04:20:44.334Z,101060.19
2022-10-20T04:23:11.965Z,101058.47
2022-10-20T04:25:48.369Z,101048.75
2022-10-20T04:28:17.592Z,101048.75
2022-10-20T04:30:44.765Z,101039.19
2022-10-20T04:33:12.704Z,101029.47
2022-10-20T04:35:40.245Z,101032.13
2022-10-20T04:38:07.373Z,101024.19
2022-10-20T04:40:34.249Z,101026.06
2022-10-20T04:43:01.271Z,101022.47
2022-10-20T04:45:28.461Z,101017.19
2022-10-20T04:47:55.325Z,101006.78
2022-10-20T04:50:22.261Z,101016.41
2022-10-20T04:52:49.113Z,101009.34
2022-10-20T04:55:15.962Z,101005.78
2022-10-20T04:57:42.797Z,101003.19
2022-10-20T05:00:10.032Z,100990.94
2022-10-20T05:02:36.867Z,100997.13
2022-10-20T05:05:05.236Z,100997.03
2022-10-20T05:07:32.243Z,100970.72
2022-10-20T05:09:59.158Z,100977.72
2022-10-20T05:12:26.021Z,100959.22
2022-10-20T05:14:52.847Z,100948.81
2022-10-20T05:17:19.737Z,100939.94
2022-10-20T05:19:46.702Z,100944.44
2022-10-20T05:22:13.540Z,100956.78
2022-10-20T05:24:40.339Z,100965.56
2022-10-20T05:27:07.223Z,100951.44
2022-10-20T05:29:34.056Z,100951.28
2022-10-20T05:32:00.879Z,100946.78
2022-10-20T05:34:27.740Z,100945.00
2022-10-20T05:36:54.739Z,100941.34
2022-10-20T05:39:21.860Z,100936.06
2022-10-20T05:41:48.663Z,100930.63
2022-10-20T05:44:15.548Z,100920.06
2022-10-20T05:46:42.831Z,100931.41
2022-10-20T05:49:15.889Z,100924.25
2022-10-20T05:51:44.034Z,100920.75
2022-10-20T05:54:12.235Z,100914.44
2022-10-20T05:56:39.339Z,100925.81
2022-10-20T05:59:06.160Z,100920.34
2022-10-20T06:02:00.089Z,100911.59
2022-10-20T06:04:28.392Z,100890.44
2022-10-20T06:06:56.266Z,100884.31
2022-10-20T06:09:24.669Z,100898.44
2022-10-20T06:11:52.570Z,100901.94
2022-10-20T06:14:22.625Z,100894.88
2022-10-20T06:16:53.858Z,100907.13
2022-10-20T06:19:20.744Z,100908.00
2022-10-20T06:21:49.286Z,100898.28
2022-10-20T06:24:17.403Z,100887.63
2022-10-20T06:26:45.272Z,100878.69
2022-10-20T06:29:15.465Z,100874.34
2022-10-20T06:31:48.259Z,100867.47
2022-10-20T06:34:18.119Z,100865.03
2022-10-20T06:36:46.353Z,100866.72
2022-10-20T06:39:19.319Z,100863.31
2022-10-20T06:41:51.156Z,100860.72
2022-10-20T06:44:19.660Z,100856.28
2022-10-20T06:46:46.916Z,100866.09
2022-10-20T06:49:14.861Z,100854.66
2022-10-20T06:51:41.996Z,100853.81
2022-10-20T06:54:09.602Z,100841.63
2022-10-20T06:56:37.261Z,100828.41
2022-10-20T06:59:04.531Z,100819.63
2022-10-20T07:01:37.090Z,100819.63
2022-10-20T07:04:11.729Z,100803.78
2022-10-20T07:06:41.124Z,100812.63
2022-10-20T07:09:12.268Z,100830.28
2022-10-20T07:11:39.051Z,100838.19
2022-10-20T07:14:06.218Z,100835.50
2022-10-20T07:16:35.207Z,100829.25
2022-10-20T07:19:04.054Z,100824.75
2022-10-20T07:21:35.738Z,100815.72
2022-10-20T07:24:06.993Z,100811.38
2022-10-20T07:26:37.356Z,100828.78
2022-10-20T07:29:05.012Z,100830.47
2022-10-20T07:31:38.298Z,100832.28
2022-10-20T07:34:13.686Z,100829.56
2022-10-20T07:36:47.272Z,100839.22
2022-10-20T07:39:14.322Z,100838.25
2022-10-20T07:41:44.290Z,100832.06
2022-10-20T07:44:12.592Z,100836.38
2022-10-20T07:46:39.502Z,100837.19
2022-10-20T07:50:00.716Z,100836.22
2022-10-20T07:51:53.548Z,100826.50
2022-10-20T07:54:20.615Z,100820.22
2022-10-20T07:56:47.826Z,100830.78
2022-10-20T07:59:15.174Z,100819.28
2022-10-20T08:01:42.512Z,100812.16
2022-10-20T08:04:10.009Z,100817.44
2022-10-20T08:06:39.067Z,100815.50
2022-10-20T08:09:07.734Z,100815.34
2022-10-20T08:11:35.894Z,100808.25
2022-10-20T08:14:03.019Z,100809.03
2022-10-20T08:16:31.866Z,100797.50
2022-10-20T08:19:03.307Z,100779.84
2022-10-20T08:21:30.362Z,100782.59
2022-10-20T08:23:57.683Z,100789.56
2022-10-20T08:26:26.429Z,100792.22
2022-10-20T08:28:56.112Z,100791.28
2022-10-20T08:31:24.221Z,100790.44
2022-10-20T08:33:52.937Z,100785.06
2022-10-20T08:36:21.325Z,100781.47
2022-10-20T08:38:48.857Z,100781.47
2022-10-20T08:41:25.712Z,100785.84
2022-10-20T08:43:55.467Z,100782.25
2022-10-20T08:46:33.282Z,100787.38
2022-10-20T08:49:01.575Z,100794.38
2022-10-20T08:51:33.070Z,100797.03
2022-10-20T08:54:02.954Z,100795.31
2022-10-20T08:56:33.695Z,100785.59
2022-10-20T08:59:03.951Z,100790.00
2022-10-20T09:01:36.363Z,100790.88
2022-10-20T09:04:14.683Z,100782.94
2022-10-20T09:06:45.854Z,100779.44
2022-10-20T09:09:19.236Z,100782.06
2022-10-20T09:11:47.855Z,100772.47
2022-10-20T09:14:17.245Z,100768.09
2022-10-20T09:16:59.648Z,100752.31
2022-10-20T09:19:28.570Z,100745.22
2022-10-20T09:22:03.220Z,100740.78
2022-10-20T09:24:31.940Z,100728.31
2022-10-20T09:27:21.767Z,100719.63
2022-10-20T09:29:49.229Z,100719.72
2022-10-20T09:32:50.375Z,100723.25
2022-10-20T09:35:27.154Z,100711.81
2022-10-20T09:38:26.919Z,100696.59
2022-10-20T09:41:10.671Z,100685.84
2022-10-20T09:44:00.632Z,100692.00
2022-10-20T09:46:30.776Z,100696.38
2022-10-20T09:48:58.558Z,100687.56
2022-10-20T09:51:28.310Z,100679.53
2022-10-20T09:54:06.038Z,100679.53
2022-10-20T09:56:37.803Z,100684.81
2022-10-20T09:59:09.788Z,100668.19
2022-10-20T10:01:53.810Z,100671.78
2022-10-20T10:04:38.752Z,100671.13
2022-10-20T10:07:27.037Z,100661.56
2022-10-20T10:10:08.478Z,100657.19
2022-10-20T10:12:36.497Z,100659.94
2022-10-20T10:15:34.757Z,100652.06
2022-10-20T10:18:14.025Z,100663.63
2022-10-20T10:20:41.884Z,100652.25
2022-10-20T10:23:26.920Z,100648.84
2022-10-20T10:25:57.966Z,100641.88
2022-10-20T10:28:37.467Z,100639.28
2022-10-20T10:31:17.840Z,100637.50
2022-10-20T10:33:44.959Z,100636.66
2022-10-20T10:36:35.175Z,100625.31
2022-10-20T10:39:04.426Z,100632.38
2022-10-20T10:41:53.049Z,100626.31
2022-10-20T10:44:31.926Z,100627.22
2022-10-20T10:47:31.364Z,100621.03
2022-10-20T10:50:17.303Z,100614.00
2022-10-20T10:52:59.597Z,100606.94
2022-10-20T10:55:47.882Z,100614.00
2022-10-20T10:58:31.009Z,100607.88
2022-10-20T11:01:11.140Z,100604.41
2022-10-20T11:04:29.479Z,100604.56
2022-10-20T11:07:04.993Z,100603.72
2022-10-20T11:09:50.067Z,100594.84
2022-10-20T11:12:41.798Z,100599.28
2022-10-20T11:15:47.843Z,100590.50
2022-10-20T11:18:32.644Z,100582.72
2022-10-20T11:21:37.033Z,100586.22
2022-10-20T11:24:13.100Z,100593.19
2022-10-20T11:27:02.219Z,100585.38
2022-10-20T11:29:37.165Z,100586.22
2022-10-20T11:32:30.443Z,100581.88
2022-10-20T11:35:02.304Z,100576.59
2022-10-20T11:37:32.696Z,100567.91
2022-10-20T11:40:11.719Z,100563.53
2022-10-20T11:42:51.112Z,100557.44
2022-10-20T11:45:37.823Z,100544.28
2022-10-20T11:48:17.716Z,100551.28
2022-10-20T11:50:54.241Z,100543.34
2022-10-20T11:53:23.895Z,100551.34
2022-10-20T11:55:53.888Z,100544.28
2022-10-20T11:58:45.113Z,100532.84
2022-10-20T12:01:38.496Z,100538.22
2022-10-20T12:04:31.314Z,100530.31
2022-10-20T12:07:36.081Z,100528.41
2022-10-20T12:10:13.536Z,100522.38
2022-10-20T12:12:54.222Z,100523.31
2022-10-20T12:15:25.311Z,100525.03
2022-10-20T12:17:54.370Z,100522.44
2022-10-20T12:20:21.326Z,100518.00
2022-10-20T12:22:51.320Z,100515.47
2022-10-20T12:25:27.558Z,100518.97
2022-10-20T12:28:25.750Z,100517.25
2022-10-20T12:30:59.831Z,100517.34
2022-10-20T12:33:40.086Z,100509.34
2022-10-20T12:36:15.803Z,100503.13
2022-10-20T12:38:45.058Z,100489.91
2022-10-20T12:41:26.802Z,100491.59
2022-10-20T12:43:58.999Z,100486.31
2022-10-20T12:46:31.926Z,100488.88
2022-10-20T12:49:09.459Z,100484.25
2022-10-20T12:51:49.108Z,100479.75
2022-10-20T12:54:48.573Z,100481.38
2022-10-20T12:57:41.745Z,100467.13
2022-10-20T13:00:29.019Z,100467.88
2022-10-20T13:02:58.185Z,100464.19
2022-10-20T13:05:39.190Z,100460.69
2022-10-20T13:08:21.555Z,100453.72
2022-10-20T13:10:50.029Z,100445.63
2022-10-20T13:13:20.036Z,100442.91
2022-10-20T13:15:50.739Z,100442.81
2022-10-20T13:18:35.718Z,100443.66
2022-10-20T13:21:02.896Z,100440.94
2022-10-20T13:23:54.276Z,100436.41
2022-10-20T13:26:21.114Z,100426.47
2022-10-20T13:28:50.330Z,100427.09
2022-10-20T13:31:33.847Z,100418.88
2022-10-20T13:34:05.979Z,100418.59
2022-10-20T13:36:52.210Z,100419.34
2022-10-20T13:39:31.077Z,100414.72
2022-10-20T13:42:05.039Z,100416.25
2022-10-20T13:44:52.974Z,100417.75
2022-10-20T13:47:38.498Z,100417.56
2022-10-20T13:50:14.304Z,100410.38
2022-10-20T13:52:45.310Z,100408.50
2022-10-20T13:55:27.781Z,100404.72
2022-10-20T13:58:08.045Z,100402.84
2022-10-20T14:00:36.562Z,100389.41
2022-10-20T14:03:15.655Z,100389.31
2022-10-20T14:05:42.831Z,100383.84
2022-10-20T14:08:11.790Z,100380.16
2022-10-20T14:10:50.674Z,100384.50
2022-10-20T14:13:21.471Z,100375.91
2022-10-20T14:15:52.520Z,100377.63
2022-10-20T14:18:40.002Z,100371.28
2022-10-20T14:21:29.377Z,100355.97
2022-10-20T14:24:04.014Z,100358.13
2022-10-20T14:26:31.831Z,100359.44
2022-10-20T14:28:59.531Z,100348.44
2022-10-20T14:31:28.171Z,100352.44
2022-10-20T14:33:55.161Z,100343.25
2022-10-20T14:36:30.502Z,100339.25
2022-10-20T14:39:01.525Z,100322.09
2022-10-20T14:41:30.064Z,100325.44
2022-10-20T14:44:31.140Z,100324.16
2022-10-20T14:47:07.705Z,100320.19
2022-10-20T14:49:40.250Z,100313.72
2022-10-20T14:52:53.804Z,100311.59
2022-10-20T14:55:47.751Z,100305.91
2022-10-20T14:58:29.466Z,100303.81
2022-10-20T15:01:23.160Z,100302.53
2022-10-20T15:04:16.859Z,100293.44
2022-10-20T15:06:45.221Z,100288.97
2022-10-20T15:09:24.358Z,100282.63
2022-10-20T15:11:51.628Z,100284.22
2022-10-20T15:14:18.968Z,100284.78
2022-10-20T15:16:48.556Z,100276.69
2022-10-20T15:19:18.377Z,100279.34
2022-10-20T15:21:45.646Z,100276.50
2022-10-20T15:24:12.660Z,100273.84
2022-10-20T15:26:40.073Z,100271.19
2022-10-20T15:29:08.314Z,100268.22
2022-10-20T15:34:22.748Z,100264.63
2022-10-20T15:36:51.141Z,100258.66
2022-10-20T15:39:18.711Z,100262.06
2022-10-20T15:41:47.110Z,100256.56
2022-10-20T15:44:19.731Z,100253.69
2022-10-20T15:46:47.948Z,100245.53
2022-10-20T15:49:15.884Z,100249.78
2022-10-20T15:51:45.887Z,100246.19
2022-10-20T15:54:19.115Z,100246.06
2022-10-20T15:56:46.326Z,100236.38
2022-10-20T15:59:13.502Z,100232.78
2022-10-20T16:01:40.580Z,100222.09
2022-10-20T16:04:24.003Z,100223.91
2022-10-20T16:06:57.741Z,100218.59
2022-10-20T16:09:26.387Z,100213.28
2022-10-20T16:11:53.439Z,100208.94
2022-10-20T16:14:20.283Z,100204.69
2022-10-20T16:16:47.508Z,100198.25
2022-10-20T16:19:14.653Z,100201.91
2022-10-20T16:21:41.902Z,100193.16
2022-10-20T16:24:09.303Z,100188.66
2022-10-20T16:26:36.333Z,100186.00
2022-10-20T16:29:03.401Z,100187.84
2022-10-20T16:31:30.435Z,100185.28
2022-10-20T16:34:00.586Z,100178.31
2022-10-20T16:36:28.305Z,100176.59
2022-10-20T16:38:57.161Z,100179.97
2022-10-20T16:41:24.667Z,100172.16
2022-10-20T16:43:52.220Z,100168.31
2022-10-20T16:46:19.332Z,100168.31
2022-10-20T16:48:48.355Z,100161.41
2022-10-20T16:51:16.616Z,100158.56
2022-10-20T16:53:44.349Z,100158.34
2022-10-20T16:56:15.324Z,100162.69
2022-10-20T16:58:45.339Z,100156.41
2022-10-20T17:01:14.192Z,100144.13
2022-10-20T17:06:11.640Z,100145.69
2022-10-20T17:08:40.388Z,100147.13
2022-10-20T17:11:28.934Z,100143.13
2022-10-20T17:13:56.921Z,100139.41
2022-10-20T17:16:28.608Z,100133.03
2022-10-20T17:18:58.189Z,100131.97
2022-10-20T17:21:26.039Z,100126.44
2022-10-20T17:23:53.212Z,100125.81
2022-10-20T17:26:25.833Z,100124.94
2022-10-20T17:28:57.260Z,100120.38
2022-10-20T17:31:24.373Z,100120.06
2022-10-20T17:33:52.195Z,100121.63
2022-10-20T17:36:20.011Z,100119.06
2022-10-20T17:38:47.111Z,100118.84
2022-10-20T17:41:16.068Z,100112.59
2022-10-20T17:43:43.362Z,100119.63
2022-10-20T17:46:14.304Z,100109.00
2022-10-20T17:48:41.713Z,100108.66
2022-10-20T17:51:12.987Z,100101.53
2022-10-20T17:53:43.785Z,100105.63
2022-10-20T17:56:15.400Z,100102.41
2022-10-20T17:58:43.647Z,100100.84
2022-10-20T18:01:26.165Z,100099.16
2022-10-20T18:04:11.249Z,100098.81
2022-10-20T18:06:39.214Z,100104.84
2022-10-20T18:09:13.247Z,100101.25
2022-10-20T18:11:44.797Z,100097.50
2022-10-20T18:14:11.753Z,100095.94
2022-10-20T18:16:40.770Z,100098.94
2022-10-20T18:19:09.501Z,100105.97
2022-10-20T18:21:36.802Z,100113.72
2022-10-20T18:24:06.685Z,100099.44
2022-10-20T18:26:35.983Z,100095.63
2022-10-20T18:29:06.108Z,100102.00
2022-10-20T18:31:34.927Z,100098.16
2022-10-20T18:34:06.693Z,100099.94
2022-10-20T18:36:37.922Z,100099.94
2022-10-20T18:39:08.484Z,100099.94
2022-10-20T18:41:40.313Z,100093.47
2022-10-20T18:44:11.841Z,100089.09
2022-10-20T18:46:40.039Z,100092.72
2022-10-20T18:49:08.650Z,100089.31
2022-10-20T18:51:37.981Z,100082.34
2022-10-20T18:54:07.218Z,100082.34
2022-10-20T18:56:34.941Z,100077.03
2022-10-20T18:59:10.016Z,100080.91
2022-10-20T19:01:38.864Z,100082.97
2022-10-20T19:04:07.483Z,100084.44
2022-10-20T19:06:40.143Z,100083.34
2022-10-20T19:09:14.657Z,100076.84
2022-10-20T19:11:42.604Z,100082.41
2022-10-20T19:14:12.449Z,100071.44
2022-10-20T19:16:42.157Z,100069.16
2022-10-20T19:19:10.150Z,100068.09
2022-10-20T19:21:38.522Z,100060.00
2022-10-20T19:24:09.996Z,100058.69
2022-10-20T19:26:41.938Z,100067.25
2022-10-20T19:29:13.487Z,100052.03
2022-10-20T19:31:47.322Z,100049.13
2022-10-20T19:34:18.410Z,100050.69
2022-10-20T19:36:49.326Z,100047.94
2022-10-20T19:39:25.512Z,100041.03
2022-10-20T19:41:53.385Z,100035.25
2022-10-20T19:44:20.851Z,100029.41
2022-10-20T19:46:51.935Z,100023.25
2022-10-20T19:49:19.647Z,100024.00
2022-10-20T19:51:47.388Z,100027.13
2022-10-20T19:54:15.336Z,100019.88
2022-10-20T19:56:43.712Z,100020.59
2022-10-20T19:59:11.469Z,100015.03
2022-10-20T20:01:41.471Z,100011.66
2022-10-20T20:04:09.377Z,100012.03
2022-10-20T20:06:40.420Z,100003.84
2022-10-20T20:09:09.073Z,100002.28
2022-10-20T20:11:38.158Z,100000.94
2022-10-20T20:14:15.570Z,99998.63
2022-10-20T20:16:47.257Z,100002.97
2022-10-20T20:19:17.310Z,99998.00
2022-10-20T20:21:46.599Z,99990.78
2022-10-20T20:24:14.475Z,99986.03
2022-10-20T20:26:43.305Z,99990.41
2022-10-20T20:29:10.785Z,99980.97
2022-10-20T20:31:37.989Z,99980.38
2022-10-20T20:34:05.375Z,99976.16
2022-10-20T20:36:32.730Z,99979.03
2022-10-20T20:39:02.263Z,99971.31
2022-10-20T20:41:31.920Z,99962.88
2022-10-20T20:44:01.995Z,99966.47
2022-10-20T20:46:34.608Z,99961.31
2022-10-20T20:49:04.059Z,99958.03
2022-10-20T20:51:34.294Z,99952.94
2022-10-20T20:54:02.632Z,99951.50
2022-10-20T20:56:30.277Z,99960.66
2022-10-20T20:58:57.640Z,99948.38
2022-10-20T21:01:29.621Z,99954.75
2022-10-20T21:04:02.692Z,99957.88
2022-10-20T21:06:33.895Z,99945.78
2022-10-20T21:09:12.344Z,99945.94
2022-10-20T21:11:39.823Z,99950.38
2022-10-20T21:14:07.110Z,99952.53
2022-10-20T21:16:38.547Z,99945.91
2022-10-20T21:19:10.088Z,99940.09
2022-10-20T21:21:59.338Z,99940.31
2022-10-20T21:24:36.794Z,99940.56
2022-10-20T21:27:04.107Z,99943.75
2022-10-20T21:29:31.165Z,99930.84
2022-10-20T21:32:01.647Z,99940.75
2022-10-20T21:34:28.777Z,99935.66
2022-10-20T21:36:56.997Z,99936.84
2022-10-20T21:39:24.274Z,99938.53
2022-10-20T21:41:51.701Z,99934.75
2022-10-20T21:44:19.482Z,99932.47
2022-10-20T21:46:51.248Z,99923.88
2022-10-20T21:49:20.685Z,99927.63
2022-10-20T21:51:54.256Z,99927.97
2022-10-20T21:54:24.000Z,99926.38
2022-10-20T21:56:51.740Z,99925.75
2022-10-20T21:59:27.213Z,99923.22
2022-10-20T22:01:56.424Z,99923.47
2022-10-20T22:04:26.288Z,99921.97
2022-10-20T22:06:53.768Z,99916.69
2022-10-20T22:09:21.498Z,99913.44
2022-10-20T22:11:58.795Z,99919.69
2022-10-20T22:14:26.407Z,99909.28
2022-10-20T22:16:55.838Z,99908.66
2022-10-20T22:19:24.163Z,99905.19
2022-10-20T22:21:52.463Z,99906.28
2022-10-20T22:24:20.958Z,99904.78
2022-10-20T22:26:49.634Z,99907.44
2022-10-20T22:29:17.400Z,99902.13
2022-10-20T22:31:44.766Z,99900.56
2022-10-20T22:34:12.070Z,99902.56
2022-10-20T22:36:40.039Z,99900.91
2022-10-20T22:39:09.000Z,99901.75
2022-10-20T22:41:36.392Z,99901.00
2022-10-20T22:44:03.303Z,99903.78
2022-10-20T22:46:30.242Z,99896.91
2022-10-20T22:51:44.111Z,99888.31
2022-10-20T22:54:11.109Z,99877.00
2022-10-20T22:56:38.055Z,99887.81
2022-10-20T22:59:04.970Z,99872.03
2022-10-20T23:01:32.017Z,99866.84
2022-10-20T23:03:59.277Z,99870.47
2022-10-20T23:06:26.857Z,99870.69
2022-10-20T23:08:55.876Z,99867.31
2022-10-20T23:11:23.403Z,99859.47
2022-10-20T23:13:51.485Z,99856.06
2022-10-20T23:16:18.787Z,99851.81
2022-10-20T23:18:45.780Z,99853.50
2022-10-20T23:21:14.342Z,99850.13
2022-10-20T23:23:41.668Z,99841.44
2022-10-20T23:26:09.146Z,99846.97
2022-10-20T23:28:36.996Z,99841.78
2022-10-20T23:31:11.672Z,99837.44
2022-10-20T23:33:39.685Z,99832.38
2022-10-20T23:36:07.018Z,99829.00
2022-10-20T23:38:34.051Z,99828.16
2022-10-20T23:41:00.896Z,99822.13
2022-10-20T23:43:28.205Z,99823.19
2022-10-20T23:45:55.100Z,99820.41
2022-10-20T23:48:22.052Z,99815.34
2022-10-20T23:50:48.916Z,99816.31
2022-10-20T23:53:15.839Z,99811.34
2022-10-20T23:55:43.503Z,99816.53
2022-10-20T23:58:10.845Z,99813.97
